sensor_id;sensor_type;location;lat;lon;timestamp;P1;durP1;ratioP1;P2;durP2;ratioP2
19207;SDS011;9737;59.466;18.036;2024-02-16T00:02:01;139.05;;;22.52;;
19207;SDS011;9737;59.466;18.036;2024-02-16T00:04:29;110.30;;;20.05;;
19207;SDS011;9737;59.466;18.036;2024-02-16T00:06:58;76.05;;;19.52;;
19207;SDS011;9737;59.466;18.036;2024-02-16T00:09:26;127.35;;;20.92;;
19207;SDS011;9737;59.466;18.036;2024-02-16T00:11:56;94.30;;;20.90;;
19207;SDS011;9737;59.466;18.036;2024-02-16T00:14:24;122.72;;;20.52;;
19207;SDS011;9737;59.466;18.036;2024-02-16T00:16:52;102.65;;;19.25;;
19207;SDS011;9737;59.466;18.036;2024-02-16T00:19:20;145.77;;;20.67;;
19207;SDS011;9737;59.466;18.036;2024-02-16T00:21:50;195.82;;;22.58;;
19207;SDS011;9737;59.466;18.036;2024-02-16T00:24:19;129.93;;;20.13;;
19207;SDS011;9737;59.466;18.036;2024-02-16T00:26:47;171.40;;;23.45;;
19207;SDS011;9737;59.466;18.036;2024-02-16T00:29:17;143.23;;;21.70;;
19207;SDS011;9737;59.466;18.036;2024-02-16T00:31:45;78.43;;;17.38;;
19207;SDS011;9737;59.466;18.036;2024-02-16T00:34:14;128.70;;;19.27;;
19207;SDS011;9737;59.466;18.036;2024-02-16T00:36:42;118.00;;;18.50;;
19207;SDS011;9737;59.466;18.036;2024-02-16T00:39:10;213.50;;;20.58;;
19207;SDS011;9737;59.466;18.036;2024-02-16T00:41:38;139.27;;;20.80;;
19207;SDS011;9737;59.466;18.036;2024-02-16T00:44:06;195.23;;;21.73;;
19207;SDS011;9737;59.466;18.036;2024-02-16T00:46:37;154.77;;;20.23;;
19207;SDS011;9737;59.466;18.036;2024-02-16T00:49:06;115.53;;;19.27;;
19207;SDS011;9737;59.466;18.036;2024-02-16T00:51:39;102.80;;;18.25;;
19207;SDS011;9737;59.466;18.036;2024-02-16T00:54:09;111.65;;;17.90;;
19207;SDS011;9737;59.466;18.036;2024-02-16T00:56:37;86.63;;;17.45;;
19207;SDS011;9737;59.466;18.036;2024-02-16T00:59:06;130.05;;;19.50;;
19207;SDS011;9737;59.466;18.036;2024-02-16T01:01:35;97.68;;;17.10;;
19207;SDS011;9737;59.466;18.036;2024-02-16T01:04:05;154.68;;;20.50;;
19207;SDS011;9737;59.466;18.036;2024-02-16T01:06:34;180.15;;;18.70;;
19207;SDS011;9737;59.466;18.036;2024-02-16T01:09:02;196.00;;;20.30;;
19207;SDS011;9737;59.466;18.036;2024-02-16T01:11:30;153.23;;;21.50;;
19207;SDS011;9737;59.466;18.036;2024-02-16T01:13:58;185.35;;;20.95;;
19207;SDS011;9737;59.466;18.036;2024-02-16T01:16:26;166.30;;;19.42;;
19207;SDS011;9737;59.466;18.036;2024-02-16T01:18:55;194.82;;;19.80;;
19207;SDS011;9737;59.466;18.036;2024-02-16T01:21:24;185.70;;;19.42;;
19207;SDS011;9737;59.466;18.036;2024-02-16T01:23:53;138.25;;;18.73;;
19207;SDS011;9737;59.466;18.036;2024-02-16T01:26:21;95.45;;;17.45;;
19207;SDS011;9737;59.466;18.036;2024-02-16T01:28:49;107.75;;;16.88;;
19207;SDS011;9737;59.466;18.036;2024-02-16T01:31:17;96.68;;;18.10;;
19207;SDS011;9737;59.466;18.036;2024-02-16T01:33:45;120.40;;;16.83;;
19207;SDS011;9737;59.466;18.036;2024-02-16T01:36:13;133.80;;;19.52;;
19207;SDS011;9737;59.466;18.036;2024-02-16T01:38:43;147.82;;;17.65;;
19207;SDS011;9737;59.466;18.036;2024-02-16T01:41:11;101.32;;;15.93;;
19207;SDS011;9737;59.466;18.036;2024-02-16T01:43:41;58.10;;;14.93;;
19207;SDS011;9737;59.466;18.036;2024-02-16T01:46:09;75.82;;;16.40;;
19207;SDS011;9737;59.466;18.036;2024-02-16T01:48:37;97.72;;;16.63;;
19207;SDS011;9737;59.466;18.036;2024-02-16T01:51:07;99.07;;;15.70;;
19207;SDS011;9737;59.466;18.036;2024-02-16T01:53:37;64.75;;;15.70;;
19207;SDS011;9737;59.466;18.036;2024-02-16T01:56:07;152.82;;;21.20;;
19207;SDS011;9737;59.466;18.036;2024-02-16T01:58:36;91.03;;;16.10;;
19207;SDS011;9737;59.466;18.036;2024-02-16T02:01:05;58.00;;;15.30;;
19207;SDS011;9737;59.466;18.036;2024-02-16T02:03:33;100.88;;;16.73;;
19207;SDS011;9737;59.466;18.036;2024-02-16T02:06:02;85.30;;;16.55;;
19207;SDS011;9737;59.466;18.036;2024-02-16T02:08:30;65.68;;;15.40;;
19207;SDS011;9737;59.466;18.036;2024-02-16T02:10:58;75.10;;;16.48;;
19207;SDS011;9737;59.466;18.036;2024-02-16T02:13:28;67.32;;;15.55;;
19207;SDS011;9737;59.466;18.036;2024-02-16T02:15:56;74.13;;;14.93;;
19207;SDS011;9737;59.466;18.036;2024-02-16T02:18:26;71.47;;;16.60;;
19207;SDS011;9737;59.466;18.036;2024-02-16T02:20:54;77.65;;;15.15;;
19207;SDS011;9737;59.466;18.036;2024-02-16T02:23:23;77.07;;;16.15;;
19207;SDS011;9737;59.466;18.036;2024-02-16T02:25:51;71.45;;;16.05;;
19207;SDS011;9737;59.466;18.036;2024-02-16T02:28:19;57.97;;;14.75;;
19207;SDS011;9737;59.466;18.036;2024-02-16T02:30:50;67.65;;;14.85;;
19207;SDS011;9737;59.466;18.036;2024-02-16T02:33:20;68.30;;;14.65;;
19207;SDS011;9737;59.466;18.036;2024-02-16T02:35:49;52.70;;;14.30;;
19207;SDS011;9737;59.466;18.036;2024-02-16T02:38:17;37.05;;;13.82;;
19207;SDS011;9737;59.466;18.036;2024-02-16T02:40:47;52.58;;;13.90;;
19207;SDS011;9737;59.466;18.036;2024-02-16T02:43:15;59.70;;;15.65;;
19207;SDS011;9737;59.466;18.036;2024-02-16T02:45:45;55.25;;;15.65;;
19207;SDS011;9737;59.466;18.036;2024-02-16T02:48:13;36.28;;;13.82;;
19207;SDS011;9737;59.466;18.036;2024-02-16T02:50:41;48.83;;;14.25;;
19207;SDS011;9737;59.466;18.036;2024-02-16T02:53:10;46.53;;;13.88;;
19207;SDS011;9737;59.466;18.036;2024-02-16T02:55:38;61.70;;;13.32;;
19207;SDS011;9737;59.466;18.036;2024-02-16T02:58:07;50.08;;;14.40;;
19207;SDS011;9737;59.466;18.036;2024-02-16T03:00:35;49.85;;;13.93;;
19207;SDS011;9737;59.466;18.036;2024-02-16T03:03:03;45.78;;;14.00;;
19207;SDS011;9737;59.466;18.036;2024-02-16T03:05:31;34.95;;;13.35;;
19207;SDS011;9737;59.466;18.036;2024-02-16T03:07:59;39.15;;;13.30;;
19207;SDS011;9737;59.466;18.036;2024-02-16T03:10:28;36.90;;;13.80;;
19207;SDS011;9737;59.466;18.036;2024-02-16T03:13:01;42.30;;;13.45;;
19207;SDS011;9737;59.466;18.036;2024-02-16T03:15:31;44.53;;;13.38;;
19207;SDS011;9737;59.466;18.036;2024-02-16T03:17:59;40.90;;;13.30;;
19207;SDS011;9737;59.466;18.036;2024-02-16T03:20:28;28.83;;;12.27;;
19207;SDS011;9737;59.466;18.036;2024-02-16T03:22:57;38.33;;;12.88;;
19207;SDS011;9737;59.466;18.036;2024-02-16T03:25:24;35.85;;;12.95;;
19207;SDS011;9737;59.466;18.036;2024-02-16T03:27:53;36.97;;;14.02;;
19207;SDS011;9737;59.466;18.036;2024-02-16T03:30:21;31.40;;;12.30;;
19207;SDS011;9737;59.466;18.036;2024-02-16T03:32:50;35.38;;;12.55;;
19207;SDS011;9737;59.466;18.036;2024-02-16T03:35:19;28.58;;;12.25;;
19207;SDS011;9737;59.466;18.036;2024-02-16T03:37:46;33.97;;;12.68;;
19207;SDS011;9737;59.466;18.036;2024-02-16T03:40:14;33.13;;;12.70;;
19207;SDS011;9737;59.466;18.036;2024-02-16T03:42:43;30.17;;;13.77;;
19207;SDS011;9737;59.466;18.036;2024-02-16T03:45:11;29.25;;;12.63;;
19207;SDS011;9737;59.466;18.036;2024-02-16T03:47:39;25.65;;;12.45;;
19207;SDS011;9737;59.466;18.036;2024-02-16T03:50:10;25.67;;;11.40;;
19207;SDS011;9737;59.466;18.036;2024-02-16T03:52:41;26.27;;;11.95;;
19207;SDS011;9737;59.466;18.036;2024-02-16T03:55:08;24.63;;;11.10;;
19207;SDS011;9737;59.466;18.036;2024-02-16T03:57:36;30.25;;;11.93;;
19207;SDS011;9737;59.466;18.036;2024-02-16T04:00:05;23.55;;;10.90;;
19207;SDS011;9737;59.466;18.036;2024-02-16T04:02:34;25.13;;;11.75;;
19207;SDS011;9737;59.466;18.036;2024-02-16T04:05:03;28.48;;;12.07;;
19207;SDS011;9737;59.466;18.036;2024-02-16T04:07:32;22.27;;;11.10;;
19207;SDS011;9737;59.466;18.036;2024-02-16T04:10:00;27.55;;;11.82;;
19207;SDS011;9737;59.466;18.036;2024-02-16T04:12:28;21.58;;;10.57;;
19207;SDS011;9737;59.466;18.036;2024-02-16T04:14:56;22.15;;;11.07;;
19207;SDS011;9737;59.466;18.036;2024-02-16T04:17:25;21.58;;;10.35;;
19207;SDS011;9737;59.466;18.036;2024-02-16T04:19:52;23.92;;;11.15;;
19207;SDS011;9737;59.466;18.036;2024-02-16T04:22:20;24.98;;;10.45;;
19207;SDS011;9737;59.466;18.036;2024-02-16T04:24:50;20.40;;;9.80;;
19207;SDS011;9737;59.466;18.036;2024-02-16T04:27:17;18.38;;;9.68;;
19207;SDS011;9737;59.466;18.036;2024-02-16T04:29:45;22.48;;;10.38;;
19207;SDS011;9737;59.466;18.036;2024-02-16T04:32:13;18.60;;;9.90;;
19207;SDS011;9737;59.466;18.036;2024-02-16T04:34:41;19.10;;;9.35;;
19207;SDS011;9737;59.466;18.036;2024-02-16T04:37:09;21.90;;;9.68;;
19207;SDS011;9737;59.466;18.036;2024-02-16T04:39:37;21.17;;;9.05;;
19207;SDS011;9737;59.466;18.036;2024-02-16T04:42:07;19.95;;;9.25;;
19207;SDS011;9737;59.466;18.036;2024-02-16T04:44:36;21.95;;;9.18;;
19207;SDS011;9737;59.466;18.036;2024-02-16T04:47:05;18.60;;;8.68;;
19207;SDS011;9737;59.466;18.036;2024-02-16T04:49:33;17.10;;;8.52;;
19207;SDS011;9737;59.466;18.036;2024-02-16T04:52:01;17.08;;;8.85;;
19207;SDS011;9737;59.466;18.036;2024-02-16T04:54:29;18.52;;;8.63;;
19207;SDS011;9737;59.466;18.036;2024-02-16T04:56:57;15.85;;;8.07;;
19207;SDS011;9737;59.466;18.036;2024-02-16T04:59:26;18.05;;;8.30;;
19207;SDS011;9737;59.466;18.036;2024-02-16T05:01:54;14.73;;;8.10;;
19207;SDS011;9737;59.466;18.036;2024-02-16T05:04:22;14.55;;;7.95;;
19207;SDS011;9737;59.466;18.036;2024-02-16T05:06:50;13.55;;;7.45;;
19207;SDS011;9737;59.466;18.036;2024-02-16T05:09:24;15.30;;;7.22;;
19207;SDS011;9737;59.466;18.036;2024-02-16T05:11:53;15.05;;;7.78;;
19207;SDS011;9737;59.466;18.036;2024-02-16T05:14:21;16.55;;;7.25;;
19207;SDS011;9737;59.466;18.036;2024-02-16T05:16:51;11.00;;;7.40;;
19207;SDS011;9737;59.466;18.036;2024-02-16T05:19:22;10.65;;;6.57;;
19207;SDS011;9737;59.466;18.036;2024-02-16T05:21:50;11.52;;;6.85;;
19207;SDS011;9737;59.466;18.036;2024-02-16T05:24:18;12.52;;;6.63;;
19207;SDS011;9737;59.466;18.036;2024-02-16T05:26:47;10.30;;;6.45;;
19207;SDS011;9737;59.466;18.036;2024-02-16T05:29:14;10.65;;;6.60;;
19207;SDS011;9737;59.466;18.036;2024-02-16T05:31:42;10.40;;;6.50;;
19207;SDS011;9737;59.466;18.036;2024-02-16T05:34:11;10.23;;;6.40;;
19207;SDS011;9737;59.466;18.036;2024-02-16T05:36:40;10.68;;;6.03;;
19207;SDS011;9737;59.466;18.036;2024-02-16T05:39:08;8.90;;;5.82;;
19207;SDS011;9737;59.466;18.036;2024-02-16T05:41:47;9.65;;;6.20;;
19207;SDS011;9737;59.466;18.036;2024-02-16T05:44:15;8.23;;;5.78;;
19207;SDS011;9737;59.466;18.036;2024-02-16T05:46:44;11.18;;;5.90;;
19207;SDS011;9737;59.466;18.036;2024-02-16T05:49:13;8.43;;;5.88;;
19207;SDS011;9737;59.466;18.036;2024-02-16T05:51:41;8.48;;;5.85;;
19207;SDS011;9737;59.466;18.036;2024-02-16T05:54:26;8.50;;;6.18;;
19207;SDS011;9737;59.466;18.036;2024-02-16T05:56:54;8.43;;;5.97;;
19207;SDS011;9737;59.466;18.036;2024-02-16T05:59:22;8.73;;;5.75;;
19207;SDS011;9737;59.466;18.036;2024-02-16T06:01:51;8.40;;;6.07;;
19207;SDS011;9737;59.466;18.036;2024-02-16T06:04:20;8.23;;;5.68;;
19207;SDS011;9737;59.466;18.036;2024-02-16T06:06:48;7.95;;;5.90;;
19207;SDS011;9737;59.466;18.036;2024-02-16T06:09:16;8.23;;;5.55;;
19207;SDS011;9737;59.466;18.036;2024-02-16T06:11:44;7.75;;;5.10;;
19207;SDS011;9737;59.466;18.036;2024-02-16T06:14:12;8.27;;;5.53;;
19207;SDS011;9737;59.466;18.036;2024-02-16T06:16:45;8.05;;;5.32;;
19207;SDS011;9737;59.466;18.036;2024-02-16T06:19:13;7.68;;;5.40;;
19207;SDS011;9737;59.466;18.036;2024-02-16T06:21:43;8.85;;;5.63;;
19207;SDS011;9737;59.466;18.036;2024-02-16T06:24:11;8.00;;;5.60;;
19207;SDS011;9737;59.466;18.036;2024-02-16T06:26:39;7.88;;;5.10;;
19207;SDS011;9737;59.466;18.036;2024-02-16T06:29:08;7.28;;;5.10;;
19207;SDS011;9737;59.466;18.036;2024-02-16T06:31:36;7.88;;;5.53;;
19207;SDS011;9737;59.466;18.036;2024-02-16T06:34:04;8.77;;;5.45;;
19207;SDS011;9737;59.466;18.036;2024-02-16T06:36:32;6.18;;;4.82;;
19207;SDS011;9737;59.466;18.036;2024-02-16T06:39:01;7.70;;;5.50;;
19207;SDS011;9737;59.466;18.036;2024-02-16T06:41:29;7.40;;;5.22;;
19207;SDS011;9737;59.466;18.036;2024-02-16T06:43:57;7.88;;;5.35;;
19207;SDS011;9737;59.466;18.036;2024-02-16T06:46:25;8.07;;;5.28;;
19207;SDS011;9737;59.466;18.036;2024-02-16T06:48:53;8.00;;;5.18;;
19207;SDS011;9737;59.466;18.036;2024-02-16T06:51:23;8.35;;;5.25;;
19207;SDS011;9737;59.466;18.036;2024-02-16T06:53:51;7.53;;;5.25;;
19207;SDS011;9737;59.466;18.036;2024-02-16T06:56:20;7.82;;;5.38;;
19207;SDS011;9737;59.466;18.036;2024-02-16T06:58:48;9.15;;;5.25;;
19207;SDS011;9737;59.466;18.036;2024-02-16T07:01:16;8.18;;;5.00;;
19207;SDS011;9737;59.466;18.036;2024-02-16T07:03:44;7.65;;;5.00;;
19207;SDS011;9737;59.466;18.036;2024-02-16T07:06:13;6.50;;;4.93;;
19207;SDS011;9737;59.466;18.036;2024-02-16T07:08:41;8.40;;;5.18;;
19207;SDS011;9737;59.466;18.036;2024-02-16T07:11:09;6.60;;;4.50;;
19207;SDS011;9737;59.466;18.036;2024-02-16T07:13:40;5.55;;;4.63;;
19207;SDS011;9737;59.466;18.036;2024-02-16T07:16:09;6.45;;;4.90;;
19207;SDS011;9737;59.466;18.036;2024-02-16T07:18:37;7.97;;;5.10;;
19207;SDS011;9737;59.466;18.036;2024-02-16T07:21:05;6.40;;;4.60;;
19207;SDS011;9737;59.466;18.036;2024-02-16T07:23:33;6.90;;;5.10;;
19207;SDS011;9737;59.466;18.036;2024-02-16T07:26:01;6.70;;;4.82;;
19207;SDS011;9737;59.466;18.036;2024-02-16T07:28:33;11.85;;;5.20;;
19207;SDS011;9737;59.466;18.036;2024-02-16T07:31:03;6.50;;;4.45;;
19207;SDS011;9737;59.466;18.036;2024-02-16T07:33:31;7.25;;;4.68;;
19207;SDS011;9737;59.466;18.036;2024-02-16T07:35:59;6.60;;;4.50;;
19207;SDS011;9737;59.466;18.036;2024-02-16T07:38:27;8.15;;;4.88;;
19207;SDS011;9737;59.466;18.036;2024-02-16T07:40:55;6.65;;;4.78;;
19207;SDS011;9737;59.466;18.036;2024-02-16T07:43:23;5.65;;;4.57;;
19207;SDS011;9737;59.466;18.036;2024-02-16T07:45:51;6.38;;;4.43;;
19207;SDS011;9737;59.466;18.036;2024-02-16T07:48:21;6.50;;;4.55;;
19207;SDS011;9737;59.466;18.036;2024-02-16T07:50:50;5.18;;;4.20;;
19207;SDS011;9737;59.466;18.036;2024-02-16T07:53:18;9.82;;;3.92;;
19207;SDS011;9737;59.466;18.036;2024-02-16T07:55:46;7.22;;;3.65;;
19207;SDS011;9737;59.466;18.036;2024-02-16T07:58:14;5.57;;;3.88;;
19207;SDS011;9737;59.466;18.036;2024-02-16T08:00:41;5.05;;;4.03;;
19207;SDS011;9737;59.466;18.036;2024-02-16T08:03:09;4.72;;;4.05;;
19207;SDS011;9737;59.466;18.036;2024-02-16T08:05:39;5.70;;;3.92;;
19207;SDS011;9737;59.466;18.036;2024-02-16T08:08:06;4.32;;;3.40;;
19207;SDS011;9737;59.466;18.036;2024-02-16T08:10:34;5.68;;;3.92;;
19207;SDS011;9737;59.466;18.036;2024-02-16T08:13:03;5.82;;;4.00;;
19207;SDS011;9737;59.466;18.036;2024-02-16T08:15:31;5.68;;;3.88;;
19207;SDS011;9737;59.466;18.036;2024-02-16T08:17:59;8.18;;;3.70;;
19207;SDS011;9737;59.466;18.036;2024-02-16T08:20:27;5.18;;;3.80;;
19207;SDS011;9737;59.466;18.036;2024-02-16T08:22:56;9.65;;;3.80;;
19207;SDS011;9737;59.466;18.036;2024-02-16T08:25:25;4.22;;;3.47;;
19207;SDS011;9737;59.466;18.036;2024-02-16T08:27:54;4.95;;;3.75;;
19207;SDS011;9737;59.466;18.036;2024-02-16T08:30:22;6.05;;;3.85;;
19207;SDS011;9737;59.466;18.036;2024-02-16T08:32:51;7.53;;;3.60;;
19207;SDS011;9737;59.466;18.036;2024-02-16T08:35:20;4.53;;;3.55;;
19207;SDS011;9737;59.466;18.036;2024-02-16T08:37:49;6.35;;;4.10;;
19207;SDS011;9737;59.466;18.036;2024-02-16T08:40:18;4.97;;;3.58;;
19207;SDS011;9737;59.466;18.036;2024-02-16T08:42:46;5.90;;;3.75;;
19207;SDS011;9737;59.466;18.036;2024-02-16T08:45:14;4.63;;;3.25;;
19207;SDS011;9737;59.466;18.036;2024-02-16T08:47:44;7.47;;;3.60;;
19207;SDS011;9737;59.466;18.036;2024-02-16T08:50:15;7.78;;;3.30;;
19207;SDS011;9737;59.466;18.036;2024-02-16T08:52:43;5.50;;;3.20;;
19207;SDS011;9737;59.466;18.036;2024-02-16T08:55:11;5.43;;;3.28;;
19207;SDS011;9737;59.466;18.036;2024-02-16T08:57:41;5.15;;;3.47;;
19207;SDS011;9737;59.466;18.036;2024-02-16T09:00:09;4.80;;;3.17;;
19207;SDS011;9737;59.466;18.036;2024-02-16T09:02:38;7.78;;;3.35;;
19207;SDS011;9737;59.466;18.036;2024-02-16T09:05:06;5.75;;;3.28;;
19207;SDS011;9737;59.466;18.036;2024-02-16T09:07:36;9.02;;;3.33;;
19207;SDS011;9737;59.466;18.036;2024-02-16T09:10:05;3.15;;;2.85;;
19207;SDS011;9737;59.466;18.036;2024-02-16T09:12:34;7.15;;;3.35;;
19207;SDS011;9737;59.466;18.036;2024-02-16T09:15:04;4.47;;;3.03;;
19207;SDS011;9737;59.466;18.036;2024-02-16T09:17:32;5.50;;;3.00;;
19207;SDS011;9737;59.466;18.036;2024-02-16T09:20:00;4.10;;;2.90;;
19207;SDS011;9737;59.466;18.036;2024-02-16T09:22:30;3.78;;;2.80;;
19207;SDS011;9737;59.466;18.036;2024-02-16T09:25:01;5.35;;;2.95;;
19207;SDS011;9737;59.466;18.036;2024-02-16T09:27:29;4.30;;;2.80;;
19207;SDS011;9737;59.466;18.036;2024-02-16T09:29:58;3.55;;;2.83;;
19207;SDS011;9737;59.466;18.036;2024-02-16T09:32:27;3.78;;;2.63;;
19207;SDS011;9737;59.466;18.036;2024-02-16T09:34:55;3.92;;;2.80;;
19207;SDS011;9737;59.466;18.036;2024-02-16T09:37:23;4.40;;;2.83;;
19207;SDS011;9737;59.466;18.036;2024-02-16T09:39:51;4.30;;;2.70;;
19207;SDS011;9737;59.466;18.036;2024-02-16T09:42:21;3.78;;;3.00;;
19207;SDS011;9737;59.466;18.036;2024-02-16T09:44:52;4.10;;;3.03;;
19207;SDS011;9737;59.466;18.036;2024-02-16T09:47:22;3.35;;;2.50;;
19207;SDS011;9737;59.466;18.036;2024-02-16T09:49:52;3.88;;;2.90;;
19207;SDS011;9737;59.466;18.036;2024-02-16T09:52:20;6.28;;;2.70;;
19207;SDS011;9737;59.466;18.036;2024-02-16T09:54:49;2.60;;;2.40;;
19207;SDS011;9737;59.466;18.036;2024-02-16T09:57:17;3.22;;;2.60;;
19207;SDS011;9737;59.466;18.036;2024-02-16T09:59:45;2.88;;;2.50;;
19207;SDS011;9737;59.466;18.036;2024-02-16T10:02:13;3.88;;;2.70;;
19207;SDS011;9737;59.466;18.036;2024-02-16T10:04:41;2.25;;;2.05;;
19207;SDS011;9737;59.466;18.036;2024-02-16T10:07:10;2.47;;;2.10;;
19207;SDS011;9737;59.466;18.036;2024-02-16T10:09:40;3.22;;;1.98;;
19207;SDS011;9737;59.466;18.036;2024-02-16T10:12:09;5.40;;;2.20;;
19207;SDS011;9737;59.466;18.036;2024-02-16T10:14:37;2.47;;;1.92;;
19207;SDS011;9737;59.466;18.036;2024-02-16T10:17:07;2.83;;;1.90;;
19207;SDS011;9737;59.466;18.036;2024-02-16T10:19:36;3.30;;;2.33;;
19207;SDS011;9737;59.466;18.036;2024-02-16T10:22:08;2.42;;;2.20;;
19207;SDS011;9737;59.466;18.036;2024-02-16T10:24:38;2.20;;;2.00;;
19207;SDS011;9737;59.466;18.036;2024-02-16T10:27:13;3.13;;;2.30;;
19207;SDS011;9737;59.466;18.036;2024-02-16T10:29:43;2.33;;;2.13;;
19207;SDS011;9737;59.466;18.036;2024-02-16T10:32:11;2.00;;;1.90;;
19207;SDS011;9737;59.466;18.036;2024-02-16T10:34:40;2.50;;;1.95;;
19207;SDS011;9737;59.466;18.036;2024-02-16T10:37:09;14.45;;;6.78;;
19207;SDS011;9737;59.466;18.036;2024-02-16T10:39:38;8.02;;;4.57;;
19207;SDS011;9737;59.466;18.036;2024-02-16T10:42:08;3.95;;;2.65;;
19207;SDS011;9737;59.466;18.036;2024-02-16T10:44:37;6.18;;;3.30;;
19207;SDS011;9737;59.466;18.036;2024-02-16T10:47:09;3.78;;;3.20;;
19207;SDS011;9737;59.466;18.036;2024-02-16T10:49:37;4.60;;;2.70;;
19207;SDS011;9737;59.466;18.036;2024-02-16T10:52:05;4.00;;;2.63;;
19207;SDS011;9737;59.466;18.036;2024-02-16T10:54:34;4.10;;;3.33;;
19207;SDS011;9737;59.466;18.036;2024-02-16T10:57:08;4.10;;;2.95;;
19207;SDS011;9737;59.466;18.036;2024-02-16T10:59:42;3.55;;;2.92;;
19207;SDS011;9737;59.466;18.036;2024-02-16T11:02:12;2.45;;;2.20;;
19207;SDS011;9737;59.466;18.036;2024-02-16T11:04:41;3.28;;;2.30;;
19207;SDS011;9737;59.466;18.036;2024-02-16T11:07:15;2.70;;;2.35;;
19207;SDS011;9737;59.466;18.036;2024-02-16T11:09:44;3.85;;;2.55;;
19207;SDS011;9737;59.466;18.036;2024-02-16T11:12:15;2.67;;;2.40;;
19207;SDS011;9737;59.466;18.036;2024-02-16T11:14:44;4.38;;;2.70;;
19207;SDS011;9737;59.466;18.036;2024-02-16T11:17:14;3.30;;;3.00;;
19207;SDS011;9737;59.466;18.036;2024-02-16T11:19:42;5.00;;;2.53;;
19207;SDS011;9737;59.466;18.036;2024-02-16T11:22:14;3.63;;;2.50;;
19207;SDS011;9737;59.466;18.036;2024-02-16T11:24:44;3.40;;;2.75;;
19207;SDS011;9737;59.466;18.036;2024-02-16T11:27:13;3.10;;;2.38;;
19207;SDS011;9737;59.466;18.036;2024-02-16T11:29:48;3.35;;;2.40;;
19207;SDS011;9737;59.466;18.036;2024-02-16T11:32:18;3.30;;;2.33;;
19207;SDS011;9737;59.466;18.036;2024-02-16T11:34:46;4.82;;;3.30;;
19207;SDS011;9737;59.466;18.036;2024-02-16T11:37:15;3.90;;;3.03;;
19207;SDS011;9737;59.466;18.036;2024-02-16T11:39:43;4.13;;;3.00;;
19207;SDS011;9737;59.466;18.036;2024-02-16T11:42:14;3.08;;;2.53;;
19207;SDS011;9737;59.466;18.036;2024-02-16T11:44:52;3.17;;;2.80;;
19207;SDS011;9737;59.466;18.036;2024-02-16T11:47:23;3.05;;;2.75;;
19207;SDS011;9737;59.466;18.036;2024-02-16T11:50:02;2.95;;;2.60;;
19207;SDS011;9737;59.466;18.036;2024-02-16T11:52:31;3.10;;;2.72;;
19207;SDS011;9737;59.466;18.036;2024-02-16T11:54:59;3.20;;;2.90;;
19207;SDS011;9737;59.466;18.036;2024-02-16T11:57:30;3.10;;;2.67;;
19207;SDS011;9737;59.466;18.036;2024-02-16T12:00:00;3.35;;;2.60;;
19207;SDS011;9737;59.466;18.036;2024-02-16T12:02:30;4.18;;;2.70;;
19207;SDS011;9737;59.466;18.036;2024-02-16T12:04:58;3.65;;;3.08;;
19207;SDS011;9737;59.466;18.036;2024-02-16T12:07:30;4.68;;;3.22;;
19207;SDS011;9737;59.466;18.036;2024-02-16T12:10:00;4.80;;;3.13;;
19207;SDS011;9737;59.466;18.036;2024-02-16T12:12:31;4.93;;;3.30;;
19207;SDS011;9737;59.466;18.036;2024-02-16T12:15:01;3.33;;;2.63;;
19207;SDS011;9737;59.466;18.036;2024-02-16T12:17:30;3.38;;;2.70;;
19207;SDS011;9737;59.466;18.036;2024-02-16T12:19:57;5.30;;;2.58;;
19207;SDS011;9737;59.466;18.036;2024-02-16T12:22:26;4.78;;;3.00;;
19207;SDS011;9737;59.466;18.036;2024-02-16T12:24:54;3.83;;;2.85;;
19207;SDS011;9737;59.466;18.036;2024-02-16T12:27:24;4.15;;;2.95;;
19207;SDS011;9737;59.466;18.036;2024-02-16T12:29:52;5.57;;;2.78;;
19207;SDS011;9737;59.466;18.036;2024-02-16T12:32:21;7.22;;;3.00;;
19207;SDS011;9737;59.466;18.036;2024-02-16T12:34:49;4.80;;;2.83;;
19207;SDS011;9737;59.466;18.036;2024-02-16T12:37:17;3.17;;;2.80;;
19207;SDS011;9737;59.466;18.036;2024-02-16T12:39:45;3.40;;;2.63;;
19207;SDS011;9737;59.466;18.036;2024-02-16T12:42:14;3.33;;;2.83;;
19207;SDS011;9737;59.466;18.036;2024-02-16T12:44:42;3.00;;;2.70;;
19207;SDS011;9737;59.466;18.036;2024-02-16T12:47:10;3.42;;;2.78;;
19207;SDS011;9737;59.466;18.036;2024-02-16T12:49:39;3.33;;;2.60;;
19207;SDS011;9737;59.466;18.036;2024-02-16T12:52:07;3.78;;;3.08;;
19207;SDS011;9737;59.466;18.036;2024-02-16T12:54:35;3.50;;;2.90;;
19207;SDS011;9737;59.466;18.036;2024-02-16T12:57:03;3.95;;;2.80;;
19207;SDS011;9737;59.466;18.036;2024-02-16T12:59:31;3.50;;;2.85;;
19207;SDS011;9737;59.466;18.036;2024-02-16T13:01:58;3.88;;;2.58;;
19207;SDS011;9737;59.466;18.036;2024-02-16T13:04:29;3.20;;;2.70;;
19207;SDS011;9737;59.466;18.036;2024-02-16T13:07:00;3.95;;;2.97;;
19207;SDS011;9737;59.466;18.036;2024-02-16T13:09:28;2.95;;;2.55;;
19207;SDS011;9737;59.466;18.036;2024-02-16T13:11:57;2.95;;;2.50;;
19207;SDS011;9737;59.466;18.036;2024-02-16T13:14:25;4.55;;;2.83;;
19207;SDS011;9737;59.466;18.036;2024-02-16T13:16:53;2.97;;;2.60;;
19207;SDS011;9737;59.466;18.036;2024-02-16T13:19:21;4.18;;;2.70;;
19207;SDS011;9737;59.466;18.036;2024-02-16T13:21:50;3.05;;;2.30;;
19207;SDS011;9737;59.466;18.036;2024-02-16T13:24:20;2.88;;;2.33;;
19207;SDS011;9737;59.466;18.036;2024-02-16T13:26:48;2.88;;;2.40;;
19207;SDS011;9737;59.466;18.036;2024-02-16T13:29:16;4.68;;;2.95;;
19207;SDS011;9737;59.466;18.036;2024-02-16T13:31:44;3.05;;;2.60;;
19207;SDS011;9737;59.466;18.036;2024-02-16T13:34:12;3.10;;;2.25;;
19207;SDS011;9737;59.466;18.036;2024-02-16T13:36:41;2.95;;;2.53;;
19207;SDS011;9737;59.466;18.036;2024-02-16T13:39:09;3.33;;;2.35;;
19207;SDS011;9737;59.466;18.036;2024-02-16T13:41:39;3.10;;;2.58;;
19207;SDS011;9737;59.466;18.036;2024-02-16T13:44:07;5.35;;;2.83;;
19207;SDS011;9737;59.466;18.036;2024-02-16T13:46:35;3.00;;;2.70;;
19207;SDS011;9737;59.466;18.036;2024-02-16T13:49:03;3.95;;;2.67;;
19207;SDS011;9737;59.466;18.036;2024-02-16T13:51:31;4.05;;;2.63;;
19207;SDS011;9737;59.466;18.036;2024-02-16T13:53:59;2.97;;;2.67;;
19207;SDS011;9737;59.466;18.036;2024-02-16T13:56:27;2.60;;;2.40;;
19207;SDS011;9737;59.466;18.036;2024-02-16T13:58:56;2.90;;;2.60;;
19207;SDS011;9737;59.466;18.036;2024-02-16T14:01:24;4.88;;;2.97;;
19207;SDS011;9737;59.466;18.036;2024-02-16T14:03:52;5.30;;;2.28;;
19207;SDS011;9737;59.466;18.036;2024-02-16T14:06:20;3.00;;;2.60;;
19207;SDS011;9737;59.466;18.036;2024-02-16T14:08:49;2.70;;;2.40;;
19207;SDS011;9737;59.466;18.036;2024-02-16T14:11:20;4.30;;;2.80;;
19207;SDS011;9737;59.466;18.036;2024-02-16T14:13:48;2.90;;;2.55;;
19207;SDS011;9737;59.466;18.036;2024-02-16T14:16:18;3.20;;;2.70;;
19207;SDS011;9737;59.466;18.036;2024-02-16T14:18:46;4.50;;;2.70;;
19207;SDS011;9737;59.466;18.036;2024-02-16T14:21:15;3.42;;;2.80;;
19207;SDS011;9737;59.466;18.036;2024-02-16T14:23:43;3.55;;;2.67;;
19207;SDS011;9737;59.466;18.036;2024-02-16T14:26:12;3.08;;;2.33;;
19207;SDS011;9737;59.466;18.036;2024-02-16T14:28:39;4.20;;;2.88;;
19207;SDS011;9737;59.466;18.036;2024-02-16T14:31:08;2.97;;;2.63;;
19207;SDS011;9737;59.466;18.036;2024-02-16T14:33:37;4.63;;;2.85;;
19207;SDS011;9737;59.466;18.036;2024-02-16T14:36:06;6.05;;;2.80;;
19207;SDS011;9737;59.466;18.036;2024-02-16T14:38:35;4.78;;;2.83;;
19207;SDS011;9737;59.466;18.036;2024-02-16T14:41:03;5.38;;;3.20;;
19207;SDS011;9737;59.466;18.036;2024-02-16T14:43:32;4.40;;;2.95;;
19207;SDS011;9737;59.466;18.036;2024-02-16T14:46:00;4.80;;;3.33;;
19207;SDS011;9737;59.466;18.036;2024-02-16T14:48:30;8.45;;;3.78;;